createdAt,value
2022-08-03T00:00:57.450Z,20.37
2022-08-03T00:03:25.800Z,21.50
2022-08-03T00:06:04.487Z,20.80
2022-08-03T00:08:40.065Z,20.10
2022-08-03T00:11:08.742Z,20.93
2022-08-03T00:13:36.834Z,19.87
2022-08-03T00:16:05.474Z,20.43
2022-08-03T00:18:33.613Z,20.17
2022-08-03T00:21:03.454Z,21.03
2022-08-03T00:23:51.632Z,20.60
2022-08-03T00:26:20.189Z,19.70
2022-08-03T00:28:48.384Z,19.30
2022-08-03T00:31:16.533Z,19.97
2022-08-03T00:33:59.221Z,20.00
2022-08-03T00:36:32.611Z,19.47
2022-08-03T00:39:00.795Z,19.30
2022-08-03T00:41:28.958Z,20.27
2022-08-03T00:43:57.153Z,19.80
2022-08-03T00:46:27.355Z,19.93
2022-08-03T00:48:55.696Z,19.77
2022-08-03T00:51:24.267Z,19.30
2022-08-03T00:53:53.717Z,20.10
2022-08-03T00:56:21.840Z,19.23
2022-08-03T00:58:50.284Z,19.70
2022-08-03T01:01:18.447Z,18.37
2022-08-03T01:03:49.035Z,19.60
2022-08-03T01:06:20.038Z,18.80
2022-08-03T01:08:53.533Z,19.93
2022-08-03T01:11:32.190Z,18.50
2022-08-03T01:14:18.627Z,19.10
2022-08-03T01:16:57.789Z,21.60
2022-08-03T01:19:42.766Z,19.37
2022-08-03T01:22:34.467Z,20.87
2022-08-03T01:25:11.181Z,20.60
2022-08-03T01:27:55.910Z,20.60
2022-08-03T01:30:32.501Z,20.37
2022-08-03T01:33:05.624Z,20.47
2022-08-03T01:35:41.373Z,19.93
2022-08-03T01:38:14.617Z,20.67
2022-08-03T01:40:45.503Z,20.60
2022-08-03T01:44:27.983Z,20.87
2022-08-03T01:46:14.143Z,20.37
2022-08-03T01:48:47.280Z,21.23
2022-08-03T01:51:17.844Z,20.50
2022-08-03T01:53:46.670Z,20.70
2022-08-03T01:56:17.612Z,21.10
2022-08-03T01:58:48.417Z,21.23
2022-08-03T02:01:19.065Z,20.87
2022-08-03T02:03:59.905Z,21.60
2022-08-03T02:07:01.077Z,20.70
2022-08-03T02:09:24.683Z,22.03
2022-08-03T02:11:56.944Z,21.53
2022-08-03T02:14:26.095Z,20.80
2022-08-03T02:16:56.908Z,21.13
2022-08-03T02:19:28.745Z,20.30
2022-08-03T02:22:01.256Z,20.83
2022-08-03T02:24:33.646Z,20.80
2022-08-03T02:27:04.867Z,20.40
2022-08-03T02:29:39.457Z,18.90
2022-08-03T02:32:16.447Z,20.70
2022-08-03T02:34:48.519Z,20.40
2022-08-03T02:37:20.970Z,20.23
2022-08-03T02:39:53.324Z,20.60
2022-08-03T02:42:23.268Z,20.93
2022-08-03T02:44:54.465Z,20.67
2022-08-03T02:47:24.693Z,20.93
2022-08-03T02:49:55.450Z,21.30
2022-08-03T02:52:27.738Z,21.67
2022-08-03T02:55:01.091Z,22.90
2022-08-03T02:57:31.598Z,23.40
2022-08-03T03:00:03.520Z,23.47
2022-08-03T03:02:33.915Z,22.97
2022-08-03T03:05:56.152Z,22.43
2022-08-03T03:07:53.143Z,22.70
2022-08-03T03:10:23.660Z,23.33
2022-08-03T03:12:57.642Z,22.90
2022-08-03T03:15:28.118Z,23.77
2022-08-03T03:17:58.221Z,24.20
2022-08-03T03:20:29.861Z,22.63
2022-08-03T03:23:01.325Z,23.87
2022-08-03T03:25:35.367Z,22.60
2022-08-03T03:28:06.302Z,22.87
2022-08-03T03:30:35.702Z,22.93
2022-08-03T03:33:07.875Z,21.83
2022-08-03T03:35:39.020Z,23.47
2022-08-03T03:38:09.958Z,23.53
2022-08-03T03:40:38.857Z,23.70
2022-08-03T03:43:09.266Z,23.37
2022-08-03T03:45:37.576Z,23.53
2022-08-03T03:48:08.494Z,24.20
2022-08-03T03:50:40.787Z,23.87
2022-08-03T03:53:12.698Z,25.33
2022-08-03T03:55:59.274Z,24.23
2022-08-03T03:58:33.710Z,24.20
2022-08-03T04:01:02.068Z,25.30
2022-08-03T04:03:31.503Z,24.77
2022-08-03T04:06:17.327Z,24.27
2022-08-03T04:09:03.334Z,24.53
2022-08-03T04:11:35.914Z,25.43
2022-08-03T04:14:07.602Z,25.03
2022-08-03T04:16:43.162Z,25.00
2022-08-03T04:19:22.625Z,25.07
2022-08-03T04:21:57.489Z,24.73
2022-08-03T04:24:28.217Z,24.70
2022-08-03T04:26:58.404Z,25.47
2022-08-03T04:29:27.945Z,26.30
2022-08-03T04:32:00.594Z,25.90
2022-08-03T04:34:33.471Z,26.93
2022-08-03T04:37:07.150Z,25.47
2022-08-03T04:39:37.191Z,24.23
2022-08-03T04:42:09.168Z,25.70
2022-08-03T04:44:40.965Z,24.90
2022-08-03T04:47:09.440Z,25.00
2022-08-03T04:49:41.660Z,25.07
2022-08-03T04:52:13.325Z,26.07
2022-08-03T04:54:48.803Z,25.27
2022-08-03T04:57:23.056Z,25.67
2022-08-03T04:59:58.249Z,26.23
2022-08-03T05:02:30.646Z,25.67
2022-08-03T05:05:00.546Z,26.00
2022-08-03T05:07:35.737Z,27.23
2022-08-03T05:10:15.954Z,26.00
2022-08-03T05:12:46.647Z,26.57
2022-08-03T05:15:15.287Z,24.67
2022-08-03T05:17:45.929Z,24.73
2022-08-03T05:20:18.753Z,24.90
2022-08-03T05:22:47.446Z,24.40
2022-08-03T05:25:17.788Z,25.80
2022-08-03T05:27:51.323Z,25.00
2022-08-03T05:30:31.556Z,25.57
2022-08-03T05:33:03.621Z,24.60
2022-08-03T05:36:00.903Z,23.00
2022-08-03T05:38:28.303Z,23.23
2022-08-03T05:41:21.324Z,23.83
2022-08-03T05:43:46.104Z,23.30
2022-08-03T05:46:14.625Z,22.93
2022-08-03T05:48:43.526Z,23.97
2022-08-03T05:51:13.575Z,23.47
2022-08-03T05:53:42.116Z,22.07
2022-08-03T05:56:14.041Z,22.30
2022-08-03T05:58:43.480Z,22.57
2022-08-03T06:01:11.811Z,21.80
2022-08-03T06:03:42.690Z,21.57
2022-08-03T06:06:14.451Z,21.07
2022-08-03T06:08:46.490Z,22.63
2022-08-03T06:11:14.782Z,21.13
2022-08-03T06:13:43.301Z,20.67
2022-08-03T06:16:11.730Z,20.90
2022-08-03T06:18:40.592Z,21.37
2022-08-03T06:21:14.594Z,21.20
2022-08-03T06:23:52.784Z,21.80
2022-08-03T06:26:26.082Z,21.47
2022-08-03T06:28:56.832Z,20.63
2022-08-03T06:31:33.210Z,21.30
2022-08-03T06:34:33.268Z,20.70
2022-08-03T06:36:52.417Z,22.10
2022-08-03T06:39:23.718Z,21.50
2022-08-03T06:41:53.829Z,20.90
2022-08-03T06:44:22.240Z,20.67
2022-08-03T06:46:51.282Z,19.70
2022-08-03T06:49:20.253Z,21.33
2022-08-03T06:52:05.997Z,20.50
2022-08-03T06:54:37.586Z,20.97
2022-08-03T06:57:08.426Z,19.90
2022-08-03T07:00:08.497Z,20.27
2022-08-03T07:08:07.056Z,20.07
2022-08-03T07:10:40.299Z,20.47
2022-08-03T07:13:18.311Z,20.00
2022-08-03T07:16:28.658Z,19.10
2022-08-03T07:18:59.896Z,18.80
2022-08-03T07:21:28.319Z,19.40
2022-08-03T08:21:06.151Z,18.20
2022-08-03T08:23:42.149Z,18.63
2022-08-03T08:26:12.956Z,18.40
2022-08-03T08:28:41.277Z,19.47
2022-08-03T08:31:09.597Z,17.93
2022-08-03T08:34:02.585Z,17.40
2022-08-03T08:36:27.858Z,16.37
2022-08-03T08:38:56.170Z,18.17
2022-08-03T08:41:24.578Z,17.37
2022-08-03T08:44:03.292Z,17.40
2022-08-03T08:46:35.173Z,17.87
2022-08-03T08:49:08.365Z,17.93
2022-08-03T08:51:59.525Z,18.13
2022-08-03T08:54:30.916Z,18.10
2022-08-03T08:57:12.389Z,18.07
2022-08-03T08:59:57.331Z,18.00
2022-08-03T09:02:25.880Z,17.30
2022-08-03T09:04:55.057Z,18.27
2022-08-03T09:07:25.240Z,17.90
2022-08-03T09:10:08.405Z,17.30
2022-08-03T09:12:48.478Z,18.00
2022-08-03T09:15:25.113Z,16.50
2022-08-03T09:17:55.361Z,18.03
2022-08-03T09:20:25.482Z,17.20
2022-08-03T09:22:58.701Z,16.70
2022-08-03T09:25:31.879Z,18.73
2022-08-03T09:28:13.079Z,17.30
2022-08-03T09:31:01.532Z,16.90
2022-08-03T09:33:36.171Z,17.03
2022-08-03T09:36:04.975Z,18.30
2022-08-03T09:38:34.841Z,17.30
2022-08-03T09:41:03.048Z,18.03
2022-08-03T09:43:47.565Z,17.07
2022-08-03T09:46:18.398Z,17.50
2022-08-03T09:48:46.788Z,17.37
2022-08-03T09:51:32.975Z,17.07
2022-08-03T09:54:09.619Z,17.20
2022-08-03T09:56:47.209Z,17.07
2022-08-03T09:59:28.127Z,16.20
2022-08-03T10:01:58.489Z,16.90
2022-08-03T10:04:27.662Z,16.10
2022-08-03T10:07:07.181Z,16.40
2022-08-03T10:09:37.975Z,17.10
2022-08-03T10:12:11.127Z,17.50
2022-08-03T10:14:41.878Z,17.23
2022-08-03T10:17:10.984Z,16.87
2022-08-03T10:19:42.198Z,16.63
2022-08-03T10:22:14.822Z,17.00
2022-08-03T10:24:50.835Z,17.00
2022-08-03T10:27:24.576Z,17.33
2022-08-03T10:29:54.671Z,16.60
2022-08-03T10:32:29.113Z,16.20
2022-08-03T10:35:20.914Z,16.03
2022-08-03T10:37:58.669Z,17.50
2022-08-03T10:40:48.892Z,16.40
2022-08-03T10:43:23.179Z,16.37
2022-08-03T10:45:52.340Z,18.03
2022-08-03T10:48:23.571Z,16.97
2022-08-03T10:50:52.468Z,17.27
2022-08-03T10:53:37.202Z,16.07
2022-08-03T10:56:58.404Z,17.10
2022-08-03T11:00:00.656Z,16.83
2022-08-03T11:03:04.910Z,17.03
2022-08-03T11:05:34.993Z,17.07
2022-08-03T11:08:25.923Z,18.30
2022-08-03T11:10:56.266Z,17.67
2022-08-03T11:13:28.323Z,17.60
2022-08-03T11:15:59.827Z,18.40
2022-08-03T11:18:31.053Z,16.90
2022-08-03T11:21:00.609Z,16.87
2022-08-03T11:24:02.889Z,17.43
2022-08-03T11:26:31.767Z,17.13
2022-08-03T11:29:29.187Z,17.20
2022-08-03T11:31:58.489Z,17.17
2022-08-03T11:34:27.203Z,17.90
2022-08-03T11:37:21.563Z,17.70
2022-08-03T11:39:53.810Z,17.90
2022-08-03T11:42:40.281Z,18.63
2022-08-03T11:45:11.115Z,17.60
2022-08-03T11:47:50.481Z,16.80
2022-08-03T11:50:24.102Z,18.20
2022-08-03T11:52:52.905Z,17.37
2022-08-03T11:55:22.861Z,17.30
2022-08-03T11:59:16.561Z,16.63
2022-08-03T12:01:08.914Z,16.93
2022-08-03T12:06:53.757Z,17.47
2022-08-03T12:28:50.160Z,17.10
2022-08-03T14:00:45.436Z,16.58
2022-08-03T14:03:15.408Z,16.30
2022-08-03T14:05:44.974Z,15.98
2022-08-03T14:08:14.078Z,16.35
2022-08-03T14:10:44.615Z,16.75
2022-08-03T14:13:17.516Z,16.30
2022-08-03T14:15:50.985Z,16.73
2022-08-03T14:18:29.190Z,15.93
2022-08-03T14:21:05.767Z,15.52
2022-08-03T14:23:38.821Z,15.55
2022-08-03T14:26:08.472Z,16.88
2022-08-03T14:28:37.243Z,15.48
2022-08-03T14:31:08.497Z,15.77
2022-08-03T14:33:56.052Z,15.02
2022-08-03T14:36:26.219Z,15.48
2022-08-03T14:39:03.158Z,15.27
2022-08-03T14:41:31.822Z,16.10
2022-08-03T14:44:02.226Z,14.80
2022-08-03T14:46:31.510Z,15.10
2022-08-03T14:50:33.566Z,15.90
2022-08-03T14:51:51.498Z,15.90
2022-08-03T14:54:21.464Z,16.13
2022-08-03T14:56:49.692Z,14.80
2022-08-03T15:02:06.262Z,15.63
2022-08-03T15:04:40.215Z,15.88
2022-08-03T15:07:08.549Z,15.30
2022-08-03T15:09:39.772Z,14.80
2022-08-03T15:12:08.555Z,15.65
2022-08-03T15:14:38.671Z,15.35
2022-08-03T15:17:07.433Z,16.33
2022-08-03T15:20:02.916Z,15.05
2022-08-03T15:22:34.570Z,15.90
2022-08-03T15:25:03.830Z,15.88
2022-08-03T15:28:04.138Z,15.30
2022-08-03T15:30:36.133Z,15.23
2022-08-03T15:33:04.671Z,15.93
2022-08-03T15:35:34.363Z,15.00
2022-08-03T15:38:07.309Z,15.05
2022-08-03T15:40:37.529Z,14.98
2022-08-03T15:43:06.096Z,15.10
2022-08-03T15:45:35.465Z,15.98
2022-08-03T15:48:05.552Z,16.35
2022-08-03T15:50:42.088Z,15.43
2022-08-03T15:53:12.357Z,16.10
2022-08-03T15:55:40.450Z,15.25
2022-08-03T15:59:09.158Z,15.80
2022-08-03T16:00:59.186Z,14.65
2022-08-03T16:03:28.407Z,16.90
2022-08-03T16:06:00.709Z,15.77
2022-08-03T16:08:32.362Z,15.40
2022-08-03T16:11:01.157Z,16.10
2022-08-03T16:14:13.513Z,14.85
2022-08-03T16:16:17.763Z,14.80
2022-08-03T16:18:46.006Z,15.65
2022-08-03T16:21:19.506Z,15.98
2022-08-03T16:23:50.135Z,15.00
2022-08-03T16:26:19.616Z,15.95
2022-08-03T16:28:47.803Z,15.30
2022-08-03T16:31:15.902Z,14.18
2022-08-03T16:33:44.237Z,14.68
2022-08-03T16:36:12.290Z,15.63
2022-08-03T16:38:44.600Z,14.45
2022-08-03T16:41:15.316Z,14.95
2022-08-03T16:43:43.575Z,14.05
2022-08-03T16:46:13.959Z,14.82
2022-08-03T16:48:42.253Z,15.00
2022-08-03T16:51:10.349Z,15.95
2022-08-03T16:54:07.680Z,15.13
2022-08-03T16:56:28.122Z,15.30
2022-08-03T16:58:56.249Z,15.45
2022-08-03T17:01:25.121Z,15.70
2022-08-03T17:04:04.569Z,15.70
2022-08-03T17:06:38.097Z,15.02
2022-08-03T17:09:17.999Z,15.18
2022-08-03T17:11:50.490Z,15.57
2022-08-03T17:14:28.236Z,15.07
2022-08-03T17:17:01.001Z,15.57
2022-08-03T17:19:32.269Z,14.83
2022-08-03T17:22:04.388Z,14.83
2022-08-03T17:24:35.619Z,15.40
2022-08-03T17:27:23.179Z,15.57
2022-08-03T17:30:07.605Z,15.13
2022-08-03T17:32:42.864Z,14.30
2022-08-03T17:35:20.890Z,14.80
2022-08-03T17:40:55.869Z,15.03
2022-08-03T17:44:13.083Z,14.40
2022-08-03T17:46:16.273Z,14.73
2022-08-03T17:51:46.485Z,15.70
2022-08-03T17:55:57.714Z,14.30
2022-08-03T17:58:01.482Z,14.40
2022-08-03T18:00:52.967Z,14.77
2022-08-03T18:03:26.186Z,14.40
2022-08-03T18:06:10.669Z,14.73
2022-08-03T18:08:47.482Z,14.03
2022-08-03T18:11:23.987Z,13.80
2022-08-03T18:14:16.488Z,14.77
2022-08-03T18:16:53.799Z,14.50
2022-08-03T18:20:02.692Z,14.70
2022-08-03T18:22:13.617Z,14.50
2022-08-03T18:24:45.259Z,13.93
2022-08-03T18:27:16.652Z,14.90
2022-08-03T18:29:48.309Z,15.17
2022-08-03T18:32:18.360Z,14.83
2022-08-03T18:34:53.489Z,15.00
2022-08-03T18:37:25.910Z,14.33
2022-08-03T18:39:57.904Z,14.63
2022-08-03T18:42:27.097Z,14.17
2022-08-03T18:44:56.500Z,14.43
2022-08-03T18:47:50.674Z,14.83
2022-08-03T18:50:29.421Z,15.47
2022-08-03T18:53:11.419Z,17.67
2022-08-03T18:56:01.427Z,14.90
2022-08-03T18:58:36.156Z,15.27
2022-08-03T19:01:58.165Z,16.33
2022-08-03T19:04:12.661Z,17.07
2022-08-03T19:06:44.759Z,17.67
2022-08-03T19:09:21.694Z,18.70
2022-08-03T19:12:13.214Z,16.57
2022-08-03T19:14:45.809Z,17.77
2022-08-03T19:17:21.256Z,18.37
2022-08-03T19:19:55.075Z,15.87
2022-08-03T19:22:27.217Z,16.40
2022-08-03T19:24:57.838Z,16.20
2022-08-03T19:27:27.885Z,16.13
2022-08-03T19:30:07.625Z,15.70
2022-08-03T19:32:55.046Z,17.80
2022-08-03T19:35:32.013Z,16.30
2022-08-03T19:38:16.698Z,16.33
2022-08-03T19:40:59.539Z,16.40
2022-08-03T19:43:52.933Z,17.10
2022-08-03T19:46:31.814Z,17.23
2022-08-03T19:49:02.563Z,17.10
2022-08-03T19:54:29.656Z,17.07
2022-08-03T19:57:17.008Z,16.97
2022-08-03T19:59:50.681Z,17.30
2022-08-03T20:02:26.985Z,17.23
2022-08-03T20:04:57.549Z,16.77
2022-08-03T20:07:27.888Z,18.57
2022-08-03T20:10:01.433Z,16.77
2022-08-03T20:12:38.568Z,16.43
2022-08-03T20:15:09.117Z,16.93
2022-08-03T20:17:56.201Z,16.70
2022-08-03T20:20:28.109Z,16.00
2022-08-03T20:23:02.185Z,17.47
2022-08-03T20:25:55.737Z,16.77
2022-08-03T20:28:33.667Z,16.43
2022-08-03T20:31:03.847Z,15.90
2022-08-03T20:33:48.724Z,16.80
2022-08-03T20:36:19.181Z,16.57
2022-08-03T20:38:53.144Z,16.13
2022-08-03T20:41:24.111Z,16.00
2022-08-03T20:43:55.695Z,17.10
2022-08-03T20:46:32.745Z,17.17
2022-08-03T20:49:05.705Z,16.27
2022-08-03T20:51:49.680Z,16.70
2022-08-03T20:54:30.906Z,15.90
2022-08-03T20:57:00.262Z,16.70
2022-08-03T20:59:46.724Z,17.00
2022-08-03T21:02:19.876Z,14.87
2022-08-03T21:04:57.815Z,16.20
2022-08-03T21:08:04.238Z,15.43
2022-08-03T21:10:17.802Z,15.83
2022-08-03T21:12:51.343Z,17.90
2022-08-03T21:13:08.291Z,17.40
2022-08-03T21:16:12.409Z,16.67
2022-08-03T21:18:14.762Z,19.23
2022-08-03T21:20:47.335Z,16.40
2022-08-03T21:23:45.396Z,18.00
2022-08-03T21:26:09.877Z,17.63
2022-08-03T21:28:39.862Z,16.77
2022-08-03T21:31:09.143Z,16.37
2022-08-03T21:33:37.592Z,16.80
2022-08-03T21:36:09.446Z,16.63
2022-08-03T21:38:37.744Z,16.53
2022-08-03T21:41:10.119Z,17.37
2022-08-03T21:43:38.299Z,16.67
2022-08-03T21:46:08.036Z,17.33
2022-08-03T21:48:39.024Z,16.20
2022-08-03T21:51:08.302Z,16.70
2022-08-03T21:54:03.041Z,17.60
2022-08-03T21:56:29.519Z,16.20
2022-08-03T21:59:05.028Z,16.67
2022-08-03T22:01:35.262Z,16.20
2022-08-03T22:04:09.396Z,17.03
2022-08-03T22:06:56.796Z,16.60
2022-08-03T22:09:27.687Z,16.03
2022-08-03T22:11:57.203Z,16.33
2022-08-03T22:14:25.270Z,17.20
2022-08-03T22:16:56.384Z,17.07
2022-08-03T22:19:24.682Z,17.10
2022-08-03T22:21:54.436Z,17.43
2022-08-03T22:24:28.259Z,16.57
2022-08-03T22:30:07.177Z,16.63
2022-08-03T22:32:39.411Z,16.47
2022-08-03T22:35:10.274Z,16.63
2022-08-03T22:37:54.329Z,16.73
2022-08-03T22:40:22.620Z,18.30
2022-08-03T22:42:53.213Z,17.33
2022-08-03T22:46:07.275Z,16.80
2022-08-03T22:48:11.552Z,17.03
2022-08-03T22:50:46.486Z,17.40
2022-08-03T22:53:18.318Z,16.80
2022-08-03T22:55:48.505Z,17.37
2022-08-03T22:58:18.706Z,16.80
2022-08-03T23:00:53.840Z,17.00
2022-08-03T23:03:59.877Z,17.93
2022-08-03T23:06:20.969Z,16.13
2022-08-03T23:08:51.604Z,17.77
2022-08-03T23:11:24.624Z,16.30
2022-08-03T23:13:57.043Z,17.30
2022-08-03T23:16:29.185Z,17.63
2022-08-03T23:18:59.252Z,17.33
2022-08-03T23:22:00.428Z,16.83
2022-08-03T23:24:25.979Z,17.43
2022-08-03T23:26:59.522Z,18.70
2022-08-03T23:29:32.672Z,17.50
2022-08-03T23:32:03.029Z,17.77
2022-08-03T23:34:51.149Z,17.37
2022-08-03T23:37:20.566Z,17.43
2022-08-03T23:39:49.948Z,17.27
2022-08-03T23:42:20.278Z,18.10
2022-08-03T23:44:56.769Z,18.40
2022-08-03T23:47:47.196Z,17.50
2022-08-03T23:50:15.950Z,17.77
2022-08-03T23:52:53.868Z,18.37
2022-08-03T23:55:38.527Z,19.10
2022-08-03T23:58:17.113Z,18.30
